Terminal Aerodrome Forecast
Issued by NWS

Home | Current Version | Previous Version | Graphics & Text | Print | Product List | Glossary On
Versions: 1 2 3 4 5 6 7 8 9 10 11 12 13 14 15 16 17 18 19 20 21 22 23 24 25 26 27 28 29 30 31 32 33 34 35 36
000
FTUS43 KLOT 152300
TAFORD
TAF
KORD 152323Z 1600/1706 01012KT P6SM -RADZ SCT012 BKN016 OVC030
     FM160030 36008KT P6SM SCT015 BKN025 BKN040
     FM160300 34006KT P6SM SKC
     FM161700 32007KT P6SM SCT030=

USA.gov is the U.S. government's official web portal to all federal, state and local government web resources and services.